sensor_id;sensor_type;location;lat;lon;timestamp;P1;durP1;ratioP1;P2;durP2;ratioP2
84774;SDS011;75005;50.966;11.344;2024-01-15T00:00:09;10.90;;;5.18;;
84774;SDS011;75005;50.966;11.344;2024-01-15T00:02:38;12.75;;;5.32;;
84774;SDS011;75005;50.966;11.344;2024-01-15T00:05:04;7.90;;;4.32;;
84774;SDS011;75005;50.966;11.344;2024-01-15T00:07:29;12.65;;;5.50;;
84774;SDS011;75005;50.966;11.344;2024-01-15T00:09:55;8.98;;;4.72;;
84774;SDS011;75005;50.966;11.344;2024-01-15T00:12:20;11.25;;;6.10;;
84774;SDS011;75005;50.966;11.344;2024-01-15T00:14:46;10.73;;;4.68;;
84774;SDS011;75005;50.966;11.344;2024-01-15T00:17:11;9.07;;;4.63;;
84774;SDS011;75005;50.966;11.344;2024-01-15T00:19:36;10.50;;;5.47;;
84774;SDS011;75005;50.966;11.344;2024-01-15T00:22:02;11.85;;;5.63;;
84774;SDS011;75005;50.966;11.344;2024-01-15T00:24:27;11.32;;;4.57;;
84774;SDS011;75005;50.966;11.344;2024-01-15T00:26:53;9.50;;;4.45;;
84774;SDS011;75005;50.966;11.344;2024-01-15T00:29:18;10.20;;;4.47;;
84774;SDS011;75005;50.966;11.344;2024-01-15T00:31:44;7.68;;;4.30;;
84774;SDS011;75005;50.966;11.344;2024-01-15T00:34:09;10.05;;;5.40;;
84774;SDS011;75005;50.966;11.344;2024-01-15T00:36:35;11.75;;;5.22;;
84774;SDS011;75005;50.966;11.344;2024-01-15T00:39:01;11.63;;;4.93;;
84774;SDS011;75005;50.966;11.344;2024-01-15T00:41:26;10.05;;;5.40;;
84774;SDS011;75005;50.966;11.344;2024-01-15T00:43:52;11.30;;;4.68;;
84774;SDS011;75005;50.966;11.344;2024-01-15T00:46:18;8.52;;;4.72;;
84774;SDS011;75005;50.966;11.344;2024-01-15T00:48:44;9.73;;;6.00;;
84774;SDS011;75005;50.966;11.344;2024-01-15T00:51:10;8.32;;;4.20;;
84774;SDS011;75005;50.966;11.344;2024-01-15T00:53:35;10.17;;;4.97;;
84774;SDS011;75005;50.966;11.344;2024-01-15T00:56:00;12.93;;;4.97;;
84774;SDS011;75005;50.966;11.344;2024-01-15T00:58:26;8.55;;;5.18;;
84774;SDS011;75005;50.966;11.344;2024-01-15T01:00:52;12.00;;;5.35;;
84774;SDS011;75005;50.966;11.344;2024-01-15T01:03:17;13.32;;;5.22;;
84774;SDS011;75005;50.966;11.344;2024-01-15T01:05:43;9.50;;;4.70;;
84774;SDS011;75005;50.966;11.344;2024-01-15T01:08:09;11.20;;;5.90;;
84774;SDS011;75005;50.966;11.344;2024-01-15T01:10:35;14.05;;;5.68;;
84774;SDS011;75005;50.966;11.344;2024-01-15T01:13:00;11.13;;;4.97;;
84774;SDS011;75005;50.966;11.344;2024-01-15T01:15:26;7.85;;;4.57;;
84774;SDS011;75005;50.966;11.344;2024-01-15T01:17:52;10.25;;;4.95;;
84774;SDS011;75005;50.966;11.344;2024-01-15T01:20:18;9.20;;;4.55;;
84774;SDS011;75005;50.966;11.344;2024-01-15T01:22:43;7.57;;;4.97;;
84774;SDS011;75005;50.966;11.344;2024-01-15T01:25:08;9.80;;;3.97;;
84774;SDS011;75005;50.966;11.344;2024-01-15T01:27:35;6.15;;;4.75;;
84774;SDS011;75005;50.966;11.344;2024-01-15T01:30:00;8.93;;;4.22;;
84774;SDS011;75005;50.966;11.344;2024-01-15T01:32:26;11.93;;;4.63;;
84774;SDS011;75005;50.966;11.344;2024-01-15T01:34:51;11.38;;;4.63;;
84774;SDS011;75005;50.966;11.344;2024-01-15T01:37:17;6.82;;;3.85;;
84774;SDS011;75005;50.966;11.344;2024-01-15T01:39:43;10.75;;;5.50;;
84774;SDS011;75005;50.966;11.344;2024-01-15T01:42:09;12.90;;;5.03;;
84774;SDS011;75005;50.966;11.344;2024-01-15T01:44:35;12.15;;;4.25;;
84774;SDS011;75005;50.966;11.344;2024-01-15T01:47:00;8.30;;;4.53;;
84774;SDS011;75005;50.966;11.344;2024-01-15T01:49:27;8.20;;;4.30;;
84774;SDS011;75005;50.966;11.344;2024-01-15T01:51:54;7.93;;;3.88;;
84774;SDS011;75005;50.966;11.344;2024-01-15T01:54:22;9.20;;;5.18;;
84774;SDS011;75005;50.966;11.344;2024-01-15T01:56:48;7.47;;;4.30;;
84774;SDS011;75005;50.966;11.344;2024-01-15T01:59:15;8.82;;;4.43;;
84774;SDS011;75005;50.966;11.344;2024-01-15T02:01:40;11.88;;;4.93;;
84774;SDS011;75005;50.966;11.344;2024-01-15T02:04:07;11.77;;;5.03;;
84774;SDS011;75005;50.966;11.344;2024-01-15T02:06:33;8.57;;;3.83;;
84774;SDS011;75005;50.966;11.344;2024-01-15T02:08:59;9.68;;;4.25;;
84774;SDS011;75005;50.966;11.344;2024-01-15T02:11:24;10.50;;;4.57;;
84774;SDS011;75005;50.966;11.344;2024-01-15T02:13:50;9.50;;;4.53;;
84774;SDS011;75005;50.966;11.344;2024-01-15T02:16:15;12.25;;;5.65;;
84774;SDS011;75005;50.966;11.344;2024-01-15T02:18:44;8.45;;;4.40;;
84774;SDS011;75005;50.966;11.344;2024-01-15T02:21:10;8.27;;;4.10;;
84774;SDS011;75005;50.966;11.344;2024-01-15T02:23:37;7.22;;;3.30;;
84774;SDS011;75005;50.966;11.344;2024-01-15T02:26:03;9.38;;;4.28;;
84774;SDS011;75005;50.966;11.344;2024-01-15T02:28:30;10.32;;;4.50;;
84774;SDS011;75005;50.966;11.344;2024-01-15T02:30:57;10.73;;;5.22;;
84774;SDS011;75005;50.966;11.344;2024-01-15T02:33:23;11.45;;;5.10;;
84774;SDS011;75005;50.966;11.344;2024-01-15T02:35:48;12.18;;;4.60;;
84774;SDS011;75005;50.966;11.344;2024-01-15T02:38:15;9.05;;;4.10;;
84774;SDS011;75005;50.966;11.344;2024-01-15T02:40:41;6.38;;;3.95;;
84774;SDS011;75005;50.966;11.344;2024-01-15T02:43:08;8.70;;;3.28;;
84774;SDS011;75005;50.966;11.344;2024-01-15T02:45:33;10.68;;;4.82;;
84774;SDS011;75005;50.966;11.344;2024-01-15T02:47:59;6.30;;;3.75;;
84774;SDS011;75005;50.966;11.344;2024-01-15T02:50:24;8.68;;;4.38;;
84774;SDS011;75005;50.966;11.344;2024-01-15T02:52:50;7.45;;;3.92;;
84774;SDS011;75005;50.966;11.344;2024-01-15T02:55:15;9.15;;;4.50;;
84774;SDS011;75005;50.966;11.344;2024-01-15T02:57:41;8.30;;;4.13;;
84774;SDS011;75005;50.966;11.344;2024-01-15T03:00:06;12.55;;;4.63;;
84774;SDS011;75005;50.966;11.344;2024-01-15T03:02:32;5.25;;;3.08;;
84774;SDS011;75005;50.966;11.344;2024-01-15T03:05:01;7.85;;;3.83;;
84774;SDS011;75005;50.966;11.344;2024-01-15T03:07:27;6.97;;;4.20;;
84774;SDS011;75005;50.966;11.344;2024-01-15T03:09:53;10.13;;;4.53;;
84774;SDS011;75005;50.966;11.344;2024-01-15T03:12:18;8.27;;;3.80;;
84774;SDS011;75005;50.966;11.344;2024-01-15T03:14:44;10.57;;;4.68;;
84774;SDS011;75005;50.966;11.344;2024-01-15T03:17:09;9.27;;;4.32;;
84774;SDS011;75005;50.966;11.344;2024-01-15T03:19:36;9.57;;;3.53;;
84774;SDS011;75005;50.966;11.344;2024-01-15T03:22:01;6.27;;;4.33;;
84774;SDS011;75005;50.966;11.344;2024-01-15T03:24:28;8.70;;;3.65;;
84774;SDS011;75005;50.966;11.344;2024-01-15T03:26:54;7.47;;;4.07;;
84774;SDS011;75005;50.966;11.344;2024-01-15T03:29:19;6.70;;;4.10;;
84774;SDS011;75005;50.966;11.344;2024-01-15T03:31:45;7.63;;;3.93;;
84774;SDS011;75005;50.966;11.344;2024-01-15T03:34:11;7.13;;;3.78;;
84774;SDS011;75005;50.966;11.344;2024-01-15T03:36:36;7.82;;;3.65;;
84774;SDS011;75005;50.966;11.344;2024-01-15T03:39:02;6.68;;;3.83;;
84774;SDS011;75005;50.966;11.344;2024-01-15T03:41:27;5.85;;;3.80;;
84774;SDS011;75005;50.966;11.344;2024-01-15T03:43:53;5.43;;;3.30;;
84774;SDS011;75005;50.966;11.344;2024-01-15T03:46:18;5.75;;;3.58;;
84774;SDS011;75005;50.966;11.344;2024-01-15T03:48:43;6.57;;;3.47;;
84774;SDS011;75005;50.966;11.344;2024-01-15T03:51:09;9.75;;;4.28;;
84774;SDS011;75005;50.966;11.344;2024-01-15T03:53:34;10.80;;;3.47;;
84774;SDS011;75005;50.966;11.344;2024-01-15T03:55:59;8.50;;;3.70;;
84774;SDS011;75005;50.966;11.344;2024-01-15T03:58:25;8.48;;;4.60;;
84774;SDS011;75005;50.966;11.344;2024-01-15T04:00:50;7.45;;;3.80;;
84774;SDS011;75005;50.966;11.344;2024-01-15T04:03:16;6.50;;;3.70;;
84774;SDS011;75005;50.966;11.344;2024-01-15T04:05:42;7.30;;;4.15;;
84774;SDS011;75005;50.966;11.344;2024-01-15T04:08:07;4.72;;;2.78;;
84774;SDS011;75005;50.966;11.344;2024-01-15T04:10:32;6.97;;;4.22;;
84774;SDS011;75005;50.966;11.344;2024-01-15T04:12:58;6.43;;;3.08;;
84774;SDS011;75005;50.966;11.344;2024-01-15T04:15:25;6.72;;;4.30;;
84774;SDS011;75005;50.966;11.344;2024-01-15T04:17:51;6.00;;;3.40;;
84774;SDS011;75005;50.966;11.344;2024-01-15T04:20:16;10.70;;;4.65;;
84774;SDS011;75005;50.966;11.344;2024-01-15T04:22:42;8.13;;;3.87;;
84774;SDS011;75005;50.966;11.344;2024-01-15T04:25:09;7.28;;;3.95;;
84774;SDS011;75005;50.966;11.344;2024-01-15T04:27:34;8.10;;;4.05;;
84774;SDS011;75005;50.966;11.344;2024-01-15T04:30:00;7.57;;;3.72;;
84774;SDS011;75005;50.966;11.344;2024-01-15T04:32:25;10.77;;;4.57;;
84774;SDS011;75005;50.966;11.344;2024-01-15T04:34:50;7.68;;;3.72;;
84774;SDS011;75005;50.966;11.344;2024-01-15T04:37:16;7.00;;;3.67;;
84774;SDS011;75005;50.966;11.344;2024-01-15T04:39:41;6.93;;;3.80;;
84774;SDS011;75005;50.966;11.344;2024-01-15T04:42:06;6.80;;;3.67;;
84774;SDS011;75005;50.966;11.344;2024-01-15T04:44:32;9.43;;;4.20;;
84774;SDS011;75005;50.966;11.344;2024-01-15T04:46:57;5.82;;;3.25;;
84774;SDS011;75005;50.966;11.344;2024-01-15T04:49:23;6.75;;;3.58;;
84774;SDS011;75005;50.966;11.344;2024-01-15T04:51:51;10.73;;;4.22;;
84774;SDS011;75005;50.966;11.344;2024-01-15T04:54:16;8.77;;;4.93;;
84774;SDS011;75005;50.966;11.344;2024-01-15T04:56:43;7.35;;;3.42;;
84774;SDS011;75005;50.966;11.344;2024-01-15T04:59:09;9.32;;;4.15;;
84774;SDS011;75005;50.966;11.344;2024-01-15T05:01:34;7.10;;;4.03;;
84774;SDS011;75005;50.966;11.344;2024-01-15T05:04:00;8.50;;;4.97;;
84774;SDS011;75005;50.966;11.344;2024-01-15T05:06:25;5.97;;;3.50;;
84774;SDS011;75005;50.966;11.344;2024-01-15T05:08:51;7.67;;;4.53;;
84774;SDS011;75005;50.966;11.344;2024-01-15T05:11:16;8.63;;;4.53;;
84774;SDS011;75005;50.966;11.344;2024-01-15T05:13:41;10.98;;;4.57;;
84774;SDS011;75005;50.966;11.344;2024-01-15T05:16:07;5.90;;;3.60;;
84774;SDS011;75005;50.966;11.344;2024-01-15T05:18:33;9.95;;;4.30;;
84774;SDS011;75005;50.966;11.344;2024-01-15T05:20:58;6.78;;;4.00;;
84774;SDS011;75005;50.966;11.344;2024-01-15T05:23:23;8.18;;;4.57;;
84774;SDS011;75005;50.966;11.344;2024-01-15T05:25:49;9.05;;;4.47;;
84774;SDS011;75005;50.966;11.344;2024-01-15T05:28:14;7.93;;;3.47;;
84774;SDS011;75005;50.966;11.344;2024-01-15T05:30:40;7.55;;;3.58;;
84774;SDS011;75005;50.966;11.344;2024-01-15T05:33:05;6.07;;;3.15;;
84774;SDS011;75005;50.966;11.344;2024-01-15T05:35:32;5.00;;;2.30;;
84774;SDS011;75005;50.966;11.344;2024-01-15T05:37:58;8.85;;;3.53;;
84774;SDS011;75005;50.966;11.344;2024-01-15T05:40:23;6.22;;;3.65;;
84774;SDS011;75005;50.966;11.344;2024-01-15T05:42:48;5.57;;;3.30;;
84774;SDS011;75005;50.966;11.344;2024-01-15T05:45:14;6.07;;;3.53;;
84774;SDS011;75005;50.966;11.344;2024-01-15T05:47:39;9.10;;;4.43;;
84774;SDS011;75005;50.966;11.344;2024-01-15T05:50:05;5.78;;;3.65;;
84774;SDS011;75005;50.966;11.344;2024-01-15T05:52:31;5.05;;;2.65;;
84774;SDS011;75005;50.966;11.344;2024-01-15T05:54:57;5.95;;;3.80;;
84774;SDS011;75005;50.966;11.344;2024-01-15T05:57:22;7.43;;;3.80;;
84774;SDS011;75005;50.966;11.344;2024-01-15T05:59:48;5.55;;;3.30;;
84774;SDS011;75005;50.966;11.344;2024-01-15T06:02:13;7.90;;;3.83;;
84774;SDS011;75005;50.966;11.344;2024-01-15T06:04:39;7.80;;;3.95;;
84774;SDS011;75005;50.966;11.344;2024-01-15T06:07:04;7.10;;;4.85;;
84774;SDS011;75005;50.966;11.344;2024-01-15T06:09:30;6.75;;;3.55;;
84774;SDS011;75005;50.966;11.344;2024-01-15T06:11:56;5.07;;;3.67;;
84774;SDS011;75005;50.966;11.344;2024-01-15T06:14:22;8.38;;;5.35;;
84774;SDS011;75005;50.966;11.344;2024-01-15T06:16:47;8.70;;;4.50;;
84774;SDS011;75005;50.966;11.344;2024-01-15T06:19:12;9.20;;;4.65;;
84774;SDS011;75005;50.966;11.344;2024-01-15T06:21:38;5.70;;;3.05;;
84774;SDS011;75005;50.966;11.344;2024-01-15T06:24:03;6.70;;;3.40;;
84774;SDS011;75005;50.966;11.344;2024-01-15T06:26:29;7.63;;;4.20;;
84774;SDS011;75005;50.966;11.344;2024-01-15T06:28:54;5.68;;;3.55;;
84774;SDS011;75005;50.966;11.344;2024-01-15T06:31:20;7.55;;;3.63;;
84774;SDS011;75005;50.966;11.344;2024-01-15T06:33:46;8.13;;;4.20;;
84774;SDS011;75005;50.966;11.344;2024-01-15T06:36:13;6.30;;;3.65;;
84774;SDS011;75005;50.966;11.344;2024-01-15T06:38:38;6.22;;;3.90;;
84774;SDS011;75005;50.966;11.344;2024-01-15T06:41:04;6.57;;;3.05;;
84774;SDS011;75005;50.966;11.344;2024-01-15T06:43:29;12.65;;;4.05;;
84774;SDS011;75005;50.966;11.344;2024-01-15T06:45:55;7.05;;;4.20;;
84774;SDS011;75005;50.966;11.344;2024-01-15T06:48:20;8.60;;;3.33;;
84774;SDS011;75005;50.966;11.344;2024-01-15T06:50:46;6.20;;;3.35;;
84774;SDS011;75005;50.966;11.344;2024-01-15T06:53:11;7.50;;;3.78;;
84774;SDS011;75005;50.966;11.344;2024-01-15T06:55:37;9.20;;;4.35;;
84774;SDS011;75005;50.966;11.344;2024-01-15T06:58:03;8.15;;;3.45;;
84774;SDS011;75005;50.966;11.344;2024-01-15T07:00:28;7.13;;;3.58;;
84774;SDS011;75005;50.966;11.344;2024-01-15T07:02:54;8.52;;;5.00;;
84774;SDS011;75005;50.966;11.344;2024-01-15T07:05:23;8.90;;;4.18;;
84774;SDS011;75005;50.966;11.344;2024-01-15T07:07:49;6.82;;;3.60;;
84774;SDS011;75005;50.966;11.344;2024-01-15T07:10:14;6.43;;;3.00;;
84774;SDS011;75005;50.966;11.344;2024-01-15T07:12:43;8.77;;;3.92;;
84774;SDS011;75005;50.966;11.344;2024-01-15T07:15:09;7.78;;;3.80;;
84774;SDS011;75005;50.966;11.344;2024-01-15T07:17:35;8.18;;;3.47;;
84774;SDS011;75005;50.966;11.344;2024-01-15T07:20:04;8.65;;;3.40;;
84774;SDS011;75005;50.966;11.344;2024-01-15T07:22:33;5.35;;;3.08;;
84774;SDS011;75005;50.966;11.344;2024-01-15T07:24:59;7.30;;;3.42;;
84774;SDS011;75005;50.966;11.344;2024-01-15T07:27:24;5.20;;;3.13;;
84774;SDS011;75005;50.966;11.344;2024-01-15T07:29:50;5.28;;;3.55;;
84774;SDS011;75005;50.966;11.344;2024-01-15T07:32:15;9.20;;;5.03;;
84774;SDS011;75005;50.966;11.344;2024-01-15T07:34:41;4.43;;;2.88;;
84774;SDS011;75005;50.966;11.344;2024-01-15T07:37:06;8.45;;;3.33;;
84774;SDS011;75005;50.966;11.344;2024-01-15T07:39:32;7.47;;;3.35;;
84774;SDS011;75005;50.966;11.344;2024-01-15T07:41:58;6.20;;;3.25;;
84774;SDS011;75005;50.966;11.344;2024-01-15T07:44:23;7.20;;;3.25;;
84774;SDS011;75005;50.966;11.344;2024-01-15T07:46:49;8.13;;;3.05;;
84774;SDS011;75005;50.966;11.344;2024-01-15T07:49:14;8.23;;;4.22;;
84774;SDS011;75005;50.966;11.344;2024-01-15T07:51:40;6.65;;;3.13;;
84774;SDS011;75005;50.966;11.344;2024-01-15T07:54:05;6.22;;;3.35;;
84774;SDS011;75005;50.966;11.344;2024-01-15T07:56:31;6.18;;;3.78;;
84774;SDS011;75005;50.966;11.344;2024-01-15T07:58:57;7.05;;;3.05;;
84774;SDS011;75005;50.966;11.344;2024-01-15T08:01:22;5.90;;;3.53;;
84774;SDS011;75005;50.966;11.344;2024-01-15T08:03:47;6.60;;;3.55;;
84774;SDS011;75005;50.966;11.344;2024-01-15T08:06:13;6.43;;;3.05;;
84774;SDS011;75005;50.966;11.344;2024-01-15T08:08:38;6.20;;;3.58;;
84774;SDS011;75005;50.966;11.344;2024-01-15T08:11:04;5.85;;;3.50;;
84774;SDS011;75005;50.966;11.344;2024-01-15T08:13:30;8.45;;;3.63;;
84774;SDS011;75005;50.966;11.344;2024-01-15T08:15:55;6.30;;;3.80;;
84774;SDS011;75005;50.966;11.344;2024-01-15T08:18:21;8.15;;;3.15;;
84774;SDS011;75005;50.966;11.344;2024-01-15T08:20:46;6.85;;;3.10;;
84774;SDS011;75005;50.966;11.344;2024-01-15T08:23:12;8.48;;;4.13;;
84774;SDS011;75005;50.966;11.344;2024-01-15T08:25:38;11.63;;;3.83;;
84774;SDS011;75005;50.966;11.344;2024-01-15T08:28:03;5.53;;;3.33;;
84774;SDS011;75005;50.966;11.344;2024-01-15T08:30:29;9.68;;;4.20;;
84774;SDS011;75005;50.966;11.344;2024-01-15T08:32:55;12.30;;;3.30;;
84774;SDS011;75005;50.966;11.344;2024-01-15T08:35:21;6.15;;;3.15;;
84774;SDS011;75005;50.966;11.344;2024-01-15T08:37:51;6.80;;;3.78;;
84774;SDS011;75005;50.966;11.344;2024-01-15T08:40:20;5.57;;;3.42;;
84774;SDS011;75005;50.966;11.344;2024-01-15T08:43:05;5.28;;;3.30;;
84774;SDS011;75005;50.966;11.344;2024-01-15T08:45:31;6.97;;;3.47;;
84774;SDS011;75005;50.966;11.344;2024-01-15T08:47:57;8.77;;;4.20;;
84774;SDS011;75005;50.966;11.344;2024-01-15T08:50:22;6.20;;;3.50;;
84774;SDS011;75005;50.966;11.344;2024-01-15T08:52:48;8.82;;;3.28;;
84774;SDS011;75005;50.966;11.344;2024-01-15T08:55:13;5.10;;;2.78;;
84774;SDS011;75005;50.966;11.344;2024-01-15T08:57:39;8.52;;;3.85;;
84774;SDS011;75005;50.966;11.344;2024-01-15T09:00:04;6.03;;;4.05;;
84774;SDS011;75005;50.966;11.344;2024-01-15T09:02:33;9.98;;;3.50;;
84774;SDS011;75005;50.966;11.344;2024-01-15T09:04:59;7.53;;;3.33;;
84774;SDS011;75005;50.966;11.344;2024-01-15T09:07:25;8.18;;;3.50;;
84774;SDS011;75005;50.966;11.344;2024-01-15T09:09:51;9.55;;;3.55;;
84774;SDS011;75005;50.966;11.344;2024-01-15T09:12:17;7.60;;;2.88;;
84774;SDS011;75005;50.966;11.344;2024-01-15T09:14:43;9.82;;;3.88;;
84774;SDS011;75005;50.966;11.344;2024-01-15T09:17:09;5.15;;;3.28;;
84774;SDS011;75005;50.966;11.344;2024-01-15T09:19:35;6.30;;;3.28;;
84774;SDS011;75005;50.966;11.344;2024-01-15T09:22:00;6.75;;;2.83;;
84774;SDS011;75005;50.966;11.344;2024-01-15T09:24:26;6.80;;;3.38;;
84774;SDS011;75005;50.966;11.344;2024-01-15T09:26:51;6.28;;;2.60;;
84774;SDS011;75005;50.966;11.344;2024-01-15T09:29:16;7.17;;;3.40;;
84774;SDS011;75005;50.966;11.344;2024-01-15T09:31:43;6.88;;;4.07;;
84774;SDS011;75005;50.966;11.344;2024-01-15T09:34:08;6.70;;;3.13;;
84774;SDS011;75005;50.966;11.344;2024-01-15T09:36:38;10.65;;;2.90;;
84774;SDS011;75005;50.966;11.344;2024-01-15T09:39:05;5.65;;;2.20;;
84774;SDS011;75005;50.966;11.344;2024-01-15T09:41:33;9.13;;;4.53;;
84774;SDS011;75005;50.966;11.344;2024-01-15T09:44:03;7.63;;;2.88;;
84774;SDS011;75005;50.966;11.344;2024-01-15T09:46:29;6.47;;;2.83;;
84774;SDS011;75005;50.966;11.344;2024-01-15T09:48:57;6.93;;;3.42;;
84774;SDS011;75005;50.966;11.344;2024-01-15T09:51:23;8.30;;;2.78;;
84774;SDS011;75005;50.966;11.344;2024-01-15T09:53:50;8.30;;;3.03;;
84774;SDS011;75005;50.966;11.344;2024-01-15T09:56:16;4.80;;;2.03;;
84774;SDS011;75005;50.966;11.344;2024-01-15T09:58:41;5.30;;;2.50;;
84774;SDS011;75005;50.966;11.344;2024-01-15T10:01:08;7.88;;;2.42;;
84774;SDS011;75005;50.966;11.344;2024-01-15T10:03:34;11.93;;;2.88;;
84774;SDS011;75005;50.966;11.344;2024-01-15T10:05:59;9.18;;;3.15;;
84774;SDS011;75005;50.966;11.344;2024-01-15T10:08:25;10.65;;;2.90;;
84774;SDS011;75005;50.966;11.344;2024-01-15T10:10:50;4.07;;;2.65;;
84774;SDS011;75005;50.966;11.344;2024-01-15T10:13:16;12.55;;;3.30;;
84774;SDS011;75005;50.966;11.344;2024-01-15T10:15:45;5.88;;;3.67;;
84774;SDS011;75005;50.966;11.344;2024-01-15T10:18:12;7.90;;;3.42;;
84774;SDS011;75005;50.966;11.344;2024-01-15T10:20:37;6.47;;;3.03;;
84774;SDS011;75005;50.966;11.344;2024-01-15T10:23:03;7.32;;;3.30;;
84774;SDS011;75005;50.966;11.344;2024-01-15T10:25:29;6.18;;;3.22;;
84774;SDS011;75005;50.966;11.344;2024-01-15T10:28:02;9.45;;;3.47;;
84774;SDS011;75005;50.966;11.344;2024-01-15T10:30:29;4.25;;;2.75;;
84774;SDS011;75005;50.966;11.344;2024-01-15T10:32:57;6.82;;;3.28;;
84774;SDS011;75005;50.966;11.344;2024-01-15T10:35:27;5.45;;;2.95;;
84774;SDS011;75005;50.966;11.344;2024-01-15T10:37:53;5.93;;;2.75;;
84774;SDS011;75005;50.966;11.344;2024-01-15T10:40:18;5.15;;;2.42;;
84774;SDS011;75005;50.966;11.344;2024-01-15T10:42:44;5.90;;;2.72;;
84774;SDS011;75005;50.966;11.344;2024-01-15T10:45:09;9.23;;;4.13;;
84774;SDS011;75005;50.966;11.344;2024-01-15T10:47:35;6.97;;;3.55;;
84774;SDS011;75005;50.966;11.344;2024-01-15T10:50:01;8.15;;;3.33;;
84774;SDS011;75005;50.966;11.344;2024-01-15T10:52:28;6.95;;;4.30;;
84774;SDS011;75005;50.966;11.344;2024-01-15T10:54:54;8.27;;;3.53;;
84774;SDS011;75005;50.966;11.344;2024-01-15T10:57:20;5.80;;;2.60;;
84774;SDS011;75005;50.966;11.344;2024-01-15T10:59:47;10.68;;;3.90;;
84774;SDS011;75005;50.966;11.344;2024-01-15T11:02:12;7.45;;;3.28;;
84774;SDS011;75005;50.966;11.344;2024-01-15T11:04:39;6.72;;;3.08;;
84774;SDS011;75005;50.966;11.344;2024-01-15T11:07:04;4.90;;;2.80;;
84774;SDS011;75005;50.966;11.344;2024-01-15T11:09:30;5.20;;;2.72;;
84774;SDS011;75005;50.966;11.344;2024-01-15T11:12:06;11.13;;;3.30;;
84774;SDS011;75005;50.966;11.344;2024-01-15T11:17:08;5.88;;;3.15;;
84774;SDS011;75005;50.966;11.344;2024-01-15T11:19:35;8.27;;;3.25;;
84774;SDS011;75005;50.966;11.344;2024-01-15T11:22:02;8.18;;;4.28;;
84774;SDS011;75005;50.966;11.344;2024-01-15T11:24:40;8.18;;;2.83;;
84774;SDS011;75005;50.966;11.344;2024-01-15T11:27:09;6.55;;;2.60;;
84774;SDS011;75005;50.966;11.344;2024-01-15T11:29:35;5.38;;;2.83;;
84774;SDS011;75005;50.966;11.344;2024-01-15T11:32:02;8.55;;;2.85;;
84774;SDS011;75005;50.966;11.344;2024-01-15T11:37:16;6.15;;;2.58;;
84774;SDS011;75005;50.966;11.344;2024-01-15T11:39:42;4.15;;;2.28;;
84774;SDS011;75005;50.966;11.344;2024-01-15T11:42:09;6.45;;;2.20;;
84774;SDS011;75005;50.966;11.344;2024-01-15T11:44:36;3.78;;;2.30;;
84774;SDS011;75005;50.966;11.344;2024-01-15T11:47:05;8.02;;;2.60;;
84774;SDS011;75005;50.966;11.344;2024-01-15T11:50:17;4.43;;;2.83;;
84774;SDS011;75005;50.966;11.344;2024-01-15T11:52:38;5.50;;;2.45;;
84774;SDS011;75005;50.966;11.344;2024-01-15T11:57:40;6.75;;;2.58;;
84774;SDS011;75005;50.966;11.344;2024-01-15T12:00:06;5.72;;;3.10;;
84774;SDS011;75005;50.966;11.344;2024-01-15T12:02:34;9.70;;;2.85;;
84774;SDS011;75005;50.966;11.344;2024-01-15T12:04:59;4.28;;;2.05;;
84774;SDS011;75005;50.966;11.344;2024-01-15T12:07:25;6.18;;;2.45;;
84774;SDS011;75005;50.966;11.344;2024-01-15T12:09:50;5.95;;;2.53;;
84774;SDS011;75005;50.966;11.344;2024-01-15T12:12:37;4.78;;;2.95;;
84774;SDS011;75005;50.966;11.344;2024-01-15T12:15:07;5.93;;;2.30;;
84774;SDS011;75005;50.966;11.344;2024-01-15T12:17:32;5.00;;;2.50;;
84774;SDS011;75005;50.966;11.344;2024-01-15T12:19:58;6.85;;;2.63;;
84774;SDS011;75005;50.966;11.344;2024-01-15T12:22:24;5.07;;;2.78;;
84774;SDS011;75005;50.966;11.344;2024-01-15T12:24:49;4.00;;;2.30;;
84774;SDS011;75005;50.966;11.344;2024-01-15T12:27:15;5.57;;;2.65;;
84774;SDS011;75005;50.966;11.344;2024-01-15T12:29:43;7.75;;;2.83;;
84774;SDS011;75005;50.966;11.344;2024-01-15T12:32:08;5.22;;;2.30;;
84774;SDS011;75005;50.966;11.344;2024-01-15T12:34:34;3.45;;;1.73;;
84774;SDS011;75005;50.966;11.344;2024-01-15T12:37:00;5.80;;;2.58;;
84774;SDS011;75005;50.966;11.344;2024-01-15T12:39:25;6.88;;;3.10;;
84774;SDS011;75005;50.966;11.344;2024-01-15T12:41:51;6.25;;;3.50;;
84774;SDS011;75005;50.966;11.344;2024-01-15T12:44:16;8.73;;;3.25;;
84774;SDS011;75005;50.966;11.344;2024-01-15T12:46:42;8.10;;;3.42;;
84774;SDS011;75005;50.966;11.344;2024-01-15T12:49:08;4.80;;;2.50;;
84774;SDS011;75005;50.966;11.344;2024-01-15T12:51:36;6.05;;;3.42;;
84774;SDS011;75005;50.966;11.344;2024-01-15T12:54:01;8.95;;;3.33;;
84774;SDS011;75005;50.966;11.344;2024-01-15T12:56:27;6.63;;;3.05;;
84774;SDS011;75005;50.966;11.344;2024-01-15T12:58:52;5.70;;;2.50;;
84774;SDS011;75005;50.966;11.344;2024-01-15T13:01:18;5.82;;;2.50;;
84774;SDS011;75005;50.966;11.344;2024-01-15T13:03:43;5.90;;;2.25;;
84774;SDS011;75005;50.966;11.344;2024-01-15T13:06:09;7.53;;;2.42;;
84774;SDS011;75005;50.966;11.344;2024-01-15T13:08:34;4.60;;;3.03;;
84774;SDS011;75005;50.966;11.344;2024-01-15T13:11:00;5.70;;;2.80;;
84774;SDS011;75005;50.966;11.344;2024-01-15T13:13:25;5.50;;;2.20;;
84774;SDS011;75005;50.966;11.344;2024-01-15T13:15:51;7.47;;;2.70;;
84774;SDS011;75005;50.966;11.344;2024-01-15T13:18:16;4.35;;;1.63;;
84774;SDS011;75005;50.966;11.344;2024-01-15T13:20:42;3.60;;;2.47;;
84774;SDS011;75005;50.966;11.344;2024-01-15T13:23:07;4.78;;;2.70;;
84774;SDS011;75005;50.966;11.344;2024-01-15T13:25:32;5.57;;;2.43;;
84774;SDS011;75005;50.966;11.344;2024-01-15T13:28:00;4.05;;;2.70;;
84774;SDS011;75005;50.966;11.344;2024-01-15T13:30:27;6.82;;;2.42;;
84774;SDS011;75005;50.966;11.344;2024-01-15T13:32:53;4.20;;;2.58;;
84774;SDS011;75005;50.966;11.344;2024-01-15T13:35:19;7.43;;;2.25;;
84774;SDS011;75005;50.966;11.344;2024-01-15T13:37:44;4.90;;;2.87;;
84774;SDS011;75005;50.966;11.344;2024-01-15T13:40:10;6.70;;;2.90;;
84774;SDS011;75005;50.966;11.344;2024-01-15T13:42:41;10.52;;;3.25;;
84774;SDS011;75005;50.966;11.344;2024-01-15T13:45:06;7.15;;;3.10;;
84774;SDS011;75005;50.966;11.344;2024-01-15T13:47:32;7.15;;;2.72;;
84774;SDS011;75005;50.966;11.344;2024-01-15T13:49:58;6.15;;;2.95;;
84774;SDS011;75005;50.966;11.344;2024-01-15T13:52:24;6.40;;;2.55;;
84774;SDS011;75005;50.966;11.344;2024-01-15T13:54:49;5.60;;;3.25;;
84774;SDS011;75005;50.966;11.344;2024-01-15T13:57:17;4.53;;;2.15;;
84774;SDS011;75005;50.966;11.344;2024-01-15T13:59:44;4.05;;;2.42;;
84774;SDS011;75005;50.966;11.344;2024-01-15T14:02:09;6.50;;;3.15;;
84774;SDS011;75005;50.966;11.344;2024-01-15T14:04:35;4.82;;;2.72;;
84774;SDS011;75005;50.966;11.344;2024-01-15T14:07:00;3.72;;;2.28;;
84774;SDS011;75005;50.966;11.344;2024-01-15T14:09:26;3.35;;;2.58;;
84774;SDS011;75005;50.966;11.344;2024-01-15T14:11:51;5.03;;;2.97;;
84774;SDS011;75005;50.966;11.344;2024-01-15T14:14:17;6.50;;;3.75;;
84774;SDS011;75005;50.966;11.344;2024-01-15T14:16:42;8.27;;;2.88;;
84774;SDS011;75005;50.966;11.344;2024-01-15T14:19:08;4.22;;;2.60;;
84774;SDS011;75005;50.966;11.344;2024-01-15T14:21:34;8.13;;;2.67;;
84774;SDS011;75005;50.966;11.344;2024-01-15T14:24:00;5.40;;;2.50;;
84774;SDS011;75005;50.966;11.344;2024-01-15T14:26:26;5.18;;;2.58;;
84774;SDS011;75005;50.966;11.344;2024-01-15T14:28:51;3.97;;;2.47;;
84774;SDS011;75005;50.966;11.344;2024-01-15T14:31:17;7.82;;;4.13;;
84774;SDS011;75005;50.966;11.344;2024-01-15T14:33:42;5.07;;;3.03;;